createdAt,value
2023-05-22T00:01:50.919Z,21.71
2023-05-22T00:04:20.363Z,21.71
2023-05-22T00:06:46.163Z,21.69
2023-05-22T00:09:11.871Z,21.72
2023-05-22T00:11:38.586Z,21.71
2023-05-22T00:14:04.729Z,21.69
2023-05-22T00:16:30.663Z,21.72
2023-05-22T00:18:56.786Z,21.72
2023-05-22T00:21:23.621Z,21.71
2023-05-22T00:23:49.635Z,21.73
2023-05-22T00:26:15.837Z,21.72
2023-05-22T00:28:42.252Z,21.71
2023-05-22T00:31:08.115Z,21.71
2023-05-22T00:33:33.861Z,21.71
2023-05-22T00:36:00.023Z,21.71
2023-05-22T00:38:29.705Z,21.73
2023-05-22T00:40:55.383Z,21.71
2023-05-22T00:43:21.058Z,21.72
2023-05-22T00:45:46.826Z,21.72
2023-05-22T00:48:12.980Z,21.72
2023-05-22T00:50:38.915Z,21.71
2023-05-22T00:53:04.745Z,21.71
2023-05-22T00:55:30.466Z,21.72
2023-05-22T00:57:56.671Z,21.71
2023-05-22T01:00:22.837Z,21.71
2023-05-22T01:02:48.513Z,21.70
2023-05-22T01:05:17.251Z,21.70
2023-05-22T01:07:44.935Z,21.72
2023-05-22T01:10:10.857Z,21.72
2023-05-22T01:13:01.614Z,21.72
2023-05-22T01:15:38.689Z,21.72
2023-05-22T01:18:18.914Z,21.72
2023-05-22T01:20:57.310Z,21.72
2023-05-22T01:24:02.830Z,21.72
2023-05-22T01:26:45.619Z,21.73
2023-05-22T01:29:17.465Z,21.74
2023-05-22T01:31:44.966Z,21.72
2023-05-22T01:34:11.310Z,21.72
2023-05-22T01:36:37.469Z,21.72
2023-05-22T01:39:05.571Z,21.72
2023-05-22T01:41:33.284Z,21.72
2023-05-22T01:44:00.026Z,21.72
2023-05-22T01:46:26.898Z,21.72
2023-05-22T01:48:52.573Z,21.73
2023-05-22T01:51:23.434Z,21.73
2023-05-22T01:53:58.257Z,21.73
2023-05-22T01:56:33.741Z,21.73
2023-05-22T01:59:06.288Z,21.73
2023-05-22T02:01:33.467Z,21.73
2023-05-22T02:04:00.331Z,21.73
2023-05-22T02:06:28.225Z,21.72
2023-05-22T02:08:54.226Z,21.72
2023-05-22T02:11:20.883Z,21.72
2023-05-22T02:13:47.246Z,21.72
2023-05-22T02:16:13.247Z,21.72
2023-05-22T02:18:40.910Z,21.71
2023-05-22T02:21:07.765Z,21.72
2023-05-22T02:23:33.826Z,21.71
2023-05-22T02:25:59.546Z,21.71
2023-05-22T02:28:25.221Z,21.72
2023-05-22T02:30:50.939Z,21.73
2023-05-22T02:33:17.810Z,21.72
2023-05-22T02:35:44.293Z,21.72
2023-05-22T02:38:10.149Z,21.72
2023-05-22T02:40:35.785Z,21.74
2023-05-22T02:43:01.425Z,21.71
2023-05-22T02:45:27.578Z,21.71
2023-05-22T02:47:53.293Z,21.72
2023-05-22T02:50:18.988Z,21.73
2023-05-22T02:52:44.639Z,21.74
2023-05-22T02:55:10.516Z,21.73
2023-05-22T02:57:36.215Z,21.74
2023-05-22T03:00:02.944Z,21.74
2023-05-22T03:02:29.200Z,21.72
2023-05-22T03:04:58.077Z,21.73
2023-05-22T03:07:25.545Z,21.72
2023-05-22T03:09:51.900Z,21.71
2023-05-22T03:12:17.616Z,21.73
2023-05-22T03:14:43.885Z,21.71
2023-05-22T03:17:09.628Z,21.73
2023-05-22T03:19:35.352Z,21.72
2023-05-22T03:22:01.046Z,21.73
2023-05-22T03:24:26.938Z,21.73
2023-05-22T03:26:52.599Z,21.73
2023-05-22T03:29:18.287Z,21.75
2023-05-22T03:31:43.948Z,21.72
2023-05-22T03:34:09.860Z,21.73
2023-05-22T03:36:35.544Z,21.73
2023-05-22T03:39:02.365Z,21.72
2023-05-22T03:41:28.017Z,21.74
2023-05-22T03:43:53.657Z,21.74
2023-05-22T03:46:19.425Z,21.74
2023-05-22T03:48:45.155Z,21.73
2023-05-22T03:51:10.827Z,21.75
2023-05-22T03:53:36.499Z,21.74
2023-05-22T03:56:02.190Z,21.74
2023-05-22T03:58:27.881Z,21.74
2023-05-22T04:00:54.680Z,21.73
2023-05-22T04:03:20.709Z,21.71
2023-05-22T04:05:46.547Z,21.74
2023-05-22T04:08:12.282Z,21.74
2023-05-22T04:10:40.280Z,21.75
2023-05-22T04:13:06.130Z,21.74
2023-05-22T04:15:33.037Z,21.75
2023-05-22T04:17:59.838Z,21.73
2023-05-22T04:20:26.026Z,21.73
2023-05-22T04:22:53.547Z,21.75
2023-05-22T04:25:20.298Z,21.75
2023-05-22T04:27:47.173Z,21.75
2023-05-22T04:30:16.178Z,21.77
2023-05-22T04:32:42.780Z,21.76
2023-05-22T04:35:09.254Z,21.78
2023-05-22T04:37:35.623Z,21.79
2023-05-22T04:40:06.432Z,21.83
2023-05-22T04:42:33.667Z,21.84
2023-05-22T04:45:00.154Z,21.84
2023-05-22T04:47:28.029Z,21.83
2023-05-22T04:49:54.268Z,21.79
2023-05-22T04:52:20.983Z,21.80
2023-05-22T04:54:46.992Z,21.81
2023-05-22T04:57:12.637Z,21.81
2023-05-22T04:59:38.343Z,21.79
2023-05-22T05:02:04.940Z,21.83
2023-05-22T05:04:31.006Z,21.84
2023-05-22T05:06:56.814Z,21.83
2023-05-22T05:09:23.148Z,21.83
2023-05-22T05:11:49.792Z,21.84
2023-05-22T05:14:16.117Z,21.83
2023-05-22T05:16:41.910Z,21.85
2023-05-22T05:19:07.720Z,21.86
2023-05-22T05:21:33.417Z,21.85
2023-05-22T05:23:59.559Z,21.88
2023-05-22T05:26:26.310Z,21.86
2023-05-22T05:28:52.265Z,21.87
2023-05-22T05:31:19.468Z,21.88
2023-05-22T05:33:45.263Z,21.87
2023-05-22T05:36:11.100Z,21.89
2023-05-22T05:38:36.788Z,21.89
2023-05-22T05:41:02.464Z,21.90
2023-05-22T05:43:28.131Z,21.90
2023-05-22T05:45:53.903Z,21.88
2023-05-22T05:48:19.626Z,21.89
2023-05-22T05:50:45.334Z,21.89
2023-05-22T05:53:11.093Z,21.90
2023-05-22T05:55:36.752Z,21.90
2023-05-22T05:58:02.456Z,21.92
2023-05-22T06:00:28.117Z,21.92
2023-05-22T06:02:54.116Z,21.95
2023-05-22T06:05:20.813Z,21.95
2023-05-22T06:07:47.421Z,21.95
2023-05-22T06:10:13.370Z,21.94
2023-05-22T06:12:39.448Z,21.95
2023-05-22T06:15:06.618Z,21.93
2023-05-22T06:17:33.047Z,21.95
2023-05-22T06:19:58.821Z,21.96
2023-05-22T06:22:25.405Z,21.95
2023-05-22T06:24:53.478Z,21.95
2023-05-22T06:27:21.943Z,21.94
2023-05-22T06:29:50.165Z,21.95
2023-05-22T06:32:16.247Z,21.95
2023-05-22T06:34:43.666Z,21.95
2023-05-22T06:37:10.100Z,21.94
2023-05-22T06:39:35.749Z,21.97
2023-05-22T06:42:01.562Z,21.97
2023-05-22T06:44:27.210Z,21.97
2023-05-22T06:46:52.888Z,21.97
2023-05-22T06:49:18.669Z,21.97
2023-05-22T06:51:45.649Z,21.98
2023-05-22T06:54:12.951Z,21.98
2023-05-22T06:56:40.224Z,21.99
2023-05-22T06:59:06.461Z,21.98
2023-05-22T07:01:32.441Z,21.40
2023-05-22T07:04:00.594Z,21.23
2023-05-22T07:06:26.886Z,21.66
2023-05-22T07:08:52.895Z,21.85
2023-05-22T07:11:18.983Z,21.91
2023-05-22T07:13:44.871Z,21.91
2023-05-22T07:16:10.542Z,21.92
2023-05-22T07:18:36.284Z,21.96
2023-05-22T07:21:02.109Z,21.97
2023-05-22T07:23:28.007Z,21.97
2023-05-22T07:25:53.692Z,21.97
2023-05-22T07:28:19.390Z,21.99
2023-05-22T07:30:45.059Z,21.96
2023-05-22T07:33:10.997Z,21.96
2023-05-22T07:35:36.828Z,21.96
2023-05-22T07:38:03.173Z,21.97
2023-05-22T07:40:28.879Z,21.98
2023-05-22T07:42:54.689Z,21.96
2023-05-22T07:45:20.459Z,21.96
2023-05-22T07:47:46.190Z,21.96
2023-05-22T07:50:11.890Z,21.96
2023-05-22T07:52:37.634Z,21.92
2023-05-22T07:55:03.644Z,21.84
2023-05-22T07:57:29.326Z,21.93
2023-05-22T07:59:55.663Z,21.95
2023-05-22T08:02:21.691Z,21.95
2023-05-22T08:04:47.526Z,21.98
2023-05-22T08:07:13.458Z,22.00
2023-05-22T08:09:39.225Z,22.00
2023-05-22T08:12:05.716Z,22.00
2023-05-22T08:14:33.522Z,22.02
2023-05-22T08:16:59.552Z,21.74
2023-05-22T08:19:25.422Z,21.92
2023-05-22T08:21:57.105Z,21.99
2023-05-22T08:24:28.934Z,22.02
2023-05-22T08:26:56.124Z,22.01
2023-05-22T08:29:21.847Z,22.02
2023-05-22T08:31:47.535Z,22.02
2023-05-22T08:34:13.308Z,22.03
2023-05-22T08:36:38.976Z,22.03
2023-05-22T08:39:06.657Z,22.05
2023-05-22T08:41:32.440Z,22.02
2023-05-22T08:43:58.210Z,22.02
2023-05-22T08:46:28.362Z,22.01
2023-05-22T08:48:56.101Z,22.01
2023-05-22T08:51:26.801Z,22.01
2023-05-22T08:53:55.966Z,22.02
2023-05-22T08:56:21.861Z,22.03
2023-05-22T08:58:49.296Z,22.02
2023-05-22T09:01:15.551Z,21.74
2023-05-22T09:03:41.592Z,21.48
2023-05-22T09:06:09.575Z,21.73
2023-05-22T09:08:36.009Z,21.90
2023-05-22T09:11:01.660Z,21.93
2023-05-22T09:13:29.218Z,21.95
2023-05-22T09:15:59.260Z,21.34
2023-05-22T09:18:26.894Z,21.20
2023-05-22T09:23:34.165Z,21.69
2023-05-22T09:26:01.156Z,21.82
2023-05-22T09:28:31.700Z,21.89
2023-05-22T09:30:57.429Z,21.91
2023-05-22T09:33:23.513Z,21.95
2023-05-22T09:35:52.740Z,21.95
2023-05-22T09:38:18.841Z,21.94
2023-05-22T09:40:44.507Z,21.96
2023-05-22T09:43:11.108Z,21.98
2023-05-22T09:45:38.054Z,21.97
2023-05-22T09:48:04.764Z,21.96
2023-05-22T09:50:31.473Z,21.95
2023-05-22T09:53:00.791Z,21.98
2023-05-22T09:55:27.150Z,21.99
2023-05-22T09:57:53.382Z,21.99
2023-05-22T10:00:19.422Z,22.00
2023-05-22T10:02:47.136Z,21.99
2023-05-22T10:05:21.117Z,21.99
2023-05-22T10:07:49.741Z,21.99
2023-05-22T10:10:18.242Z,22.00
2023-05-22T10:12:49.725Z,22.01
2023-05-22T10:15:16.800Z,22.00
2023-05-22T10:17:43.626Z,22.00
2023-05-22T10:20:09.873Z,21.99
2023-05-22T10:22:37.445Z,22.00
2023-05-22T10:25:04.078Z,22.00
2023-05-22T10:27:29.761Z,22.00
2023-05-22T10:30:03.010Z,21.93
2023-05-22T10:32:36.492Z,21.97
2023-05-22T10:35:11.073Z,21.99
2023-05-22T10:37:44.809Z,22.00
2023-05-22T10:40:12.619Z,22.08
2023-05-22T10:42:38.548Z,22.07
2023-05-22T10:45:06.839Z,22.06
2023-05-22T10:47:32.530Z,22.05
2023-05-22T10:50:13.418Z,22.01
2023-05-22T10:52:39.516Z,22.00
2023-05-22T10:55:07.596Z,22.02
2023-05-22T10:57:33.830Z,22.01
2023-05-22T11:00:09.679Z,22.00
2023-05-22T11:02:44.227Z,22.01
2023-05-22T11:11:10.694Z,22.03
2023-05-22T11:13:36.341Z,21.99
2023-05-22T11:16:04.861Z,22.00
2023-05-22T11:18:30.598Z,21.98
2023-05-22T11:20:58.378Z,21.99
2023-05-22T11:23:24.494Z,21.98
2023-05-22T11:25:50.218Z,22.01
2023-05-22T11:28:16.281Z,22.00
2023-05-22T11:30:42.353Z,22.03
2023-05-22T11:33:08.329Z,22.02
2023-05-22T11:35:34.823Z,22.03
2023-05-22T11:38:03.914Z,21.99
2023-05-22T11:40:30.625Z,21.98
2023-05-22T11:42:56.316Z,21.97
2023-05-22T11:45:22.531Z,21.98
2023-05-22T11:47:48.897Z,21.99
2023-05-22T11:50:17.922Z,21.98
2023-05-22T11:52:49.271Z,21.84
2023-05-22T11:55:14.935Z,21.96
2023-05-22T11:57:40.580Z,21.98
2023-05-22T12:00:07.580Z,21.99
2023-05-22T12:02:34.012Z,21.97
2023-05-22T12:04:59.901Z,21.95
2023-05-22T12:07:26.835Z,21.97
2023-05-22T12:09:55.317Z,21.97
2023-05-22T12:12:22.463Z,21.98
2023-05-22T12:14:48.534Z,21.97
2023-05-22T12:17:16.044Z,21.99
2023-05-22T12:19:43.577Z,21.98
2023-05-22T12:22:11.667Z,21.98
2023-05-22T12:24:40.007Z,21.99
2023-05-22T12:27:07.684Z,21.99
2023-05-22T12:29:33.920Z,21.99
2023-05-22T12:32:04.304Z,22.00
2023-05-22T12:34:34.156Z,22.01
2023-05-22T12:36:59.943Z,22.02
2023-05-22T12:39:27.543Z,22.03
2023-05-22T12:41:53.205Z,22.02
2023-05-22T12:44:18.852Z,22.00
2023-05-22T12:46:44.619Z,21.98
2023-05-22T12:49:10.375Z,22.01
2023-05-22T12:51:36.085Z,22.01
2023-05-22T12:54:02.377Z,22.01
2023-05-22T12:56:28.619Z,21.99
2023-05-22T12:58:56.207Z,21.90
2023-05-22T13:01:23.459Z,21.98
2023-05-22T13:03:50.777Z,22.01
2023-05-22T13:06:16.446Z,21.99
2023-05-22T13:08:42.218Z,21.99
2023-05-22T13:11:09.919Z,22.00
2023-05-22T13:13:35.597Z,22.00
2023-05-22T13:16:01.267Z,22.01
2023-05-22T13:18:26.948Z,22.01
2023-05-22T13:20:52.638Z,22.01
2023-05-22T13:23:18.313Z,21.99
2023-05-22T13:25:43.954Z,22.00
2023-05-22T13:28:09.752Z,22.02
2023-05-22T13:30:35.413Z,22.01
2023-05-22T13:33:01.147Z,22.02
2023-05-22T13:35:26.871Z,22.04
2023-05-22T13:37:52.556Z,22.03
2023-05-22T13:40:18.598Z,21.99
2023-05-22T13:42:44.433Z,22.07
2023-05-22T13:45:10.609Z,22.06
2023-05-22T13:47:36.450Z,22.04
2023-05-22T13:50:02.106Z,22.03
2023-05-22T13:52:27.869Z,22.02
2023-05-22T13:54:54.112Z,22.01
2023-05-22T13:57:19.876Z,21.98
2023-05-22T13:59:45.521Z,22.01
2023-05-22T14:02:11.265Z,21.98
2023-05-22T14:04:36.950Z,21.99
2023-05-22T14:07:02.759Z,21.98
2023-05-22T14:09:29.760Z,22.00
2023-05-22T14:11:56.937Z,21.78
2023-05-22T14:14:23.249Z,21.97
2023-05-22T14:16:50.557Z,21.99
2023-05-22T14:19:16.729Z,22.02
2023-05-22T14:21:42.423Z,22.01
2023-05-22T14:24:08.132Z,22.01
2023-05-22T14:26:33.862Z,21.99
2023-05-22T14:28:59.641Z,22.00
2023-05-22T14:31:28.146Z,21.97
2023-05-22T14:33:53.944Z,22.01
2023-05-22T14:36:19.584Z,22.02
2023-05-22T14:38:45.889Z,22.03
2023-05-22T14:41:11.928Z,22.05
2023-05-22T14:43:37.580Z,22.04
2023-05-22T14:46:03.514Z,22.02
2023-05-22T14:48:29.279Z,22.01
2023-05-22T14:50:55.042Z,22.02
2023-05-22T14:53:21.373Z,22.03
2023-05-22T14:55:47.054Z,22.02
2023-05-22T14:58:12.971Z,22.03
2023-05-22T15:00:38.624Z,22.02
2023-05-22T15:03:04.359Z,22.01
2023-05-22T15:05:30.209Z,22.03
2023-05-22T15:07:57.719Z,22.02
2023-05-22T15:10:24.910Z,22.00
2023-05-22T15:12:51.098Z,22.01
2023-05-22T15:15:16.991Z,22.01
2023-05-22T15:17:43.174Z,22.03
2023-05-22T15:20:09.661Z,22.00
2023-05-22T15:22:35.346Z,21.99
2023-05-22T15:25:05.485Z,22.00
2023-05-22T15:27:31.889Z,21.99
2023-05-22T15:29:57.545Z,21.99
2023-05-22T15:32:23.271Z,21.98
2023-05-22T15:34:48.919Z,21.98
2023-05-22T15:37:14.584Z,21.99
2023-05-22T15:39:40.263Z,21.99
2023-05-22T15:42:07.040Z,21.96
2023-05-22T15:44:32.947Z,21.97
2023-05-22T15:46:58.615Z,21.98
2023-05-22T15:49:24.267Z,21.99
2023-05-22T15:51:49.924Z,21.97
2023-05-22T15:54:15.620Z,21.97
2023-05-22T15:56:41.276Z,21.98
2023-05-22T15:59:06.928Z,21.99
2023-05-22T16:01:33.124Z,22.00
2023-05-22T16:03:59.010Z,21.99
2023-05-22T16:06:24.770Z,21.97
2023-05-22T16:08:50.405Z,21.97
2023-05-22T16:11:16.047Z,21.98
2023-05-22T16:13:41.843Z,21.97
2023-05-22T16:16:07.565Z,21.96
2023-05-22T16:18:33.288Z,21.94
2023-05-22T16:20:58.936Z,21.95
2023-05-22T16:23:24.669Z,21.95
2023-05-22T16:25:50.930Z,21.94
2023-05-22T16:28:16.629Z,21.94
2023-05-22T16:30:42.280Z,21.92
2023-05-22T16:33:08.019Z,21.93
2023-05-22T16:35:34.025Z,21.92
2023-05-22T16:37:59.741Z,21.90
2023-05-22T16:40:25.409Z,21.89
2023-05-22T16:42:51.044Z,21.90
2023-05-22T16:45:16.693Z,21.90
2023-05-22T16:47:42.410Z,21.90
2023-05-22T16:50:08.282Z,21.89
2023-05-22T16:52:33.952Z,21.88
2023-05-22T16:55:00.319Z,21.88
2023-05-22T16:57:27.347Z,21.88
2023-05-22T16:59:53.035Z,21.88
2023-05-22T17:02:18.961Z,21.85
2023-05-22T17:04:45.434Z,21.86
2023-05-22T17:07:11.087Z,21.86
2023-05-22T17:09:36.734Z,21.86
2023-05-22T17:12:02.413Z,21.82
2023-05-22T17:14:28.081Z,21.83
2023-05-22T17:16:54.590Z,21.84
2023-05-22T17:19:20.564Z,21.84
2023-05-22T17:21:46.651Z,21.83
2023-05-22T17:24:14.508Z,21.83
2023-05-22T17:26:40.507Z,21.82
2023-05-22T17:29:06.509Z,21.82
2023-05-22T17:31:33.080Z,21.82
2023-05-22T17:33:59.083Z,21.82
2023-05-22T17:36:24.740Z,21.83
2023-05-22T17:38:50.393Z,21.80
2023-05-22T17:41:16.104Z,21.80
2023-05-22T17:43:41.756Z,21.81
2023-05-22T17:46:07.424Z,21.81
2023-05-22T17:48:33.544Z,21.80
2023-05-22T17:50:59.247Z,21.78
2023-05-22T17:53:25.656Z,21.76
2023-05-22T17:55:51.601Z,21.77
2023-05-22T17:58:18.654Z,21.77
2023-05-22T18:00:45.855Z,21.76
2023-05-22T18:03:12.216Z,21.77
2023-05-22T18:05:37.981Z,21.75
2023-05-22T18:08:03.722Z,21.74
2023-05-22T18:10:29.599Z,21.74
2023-05-22T18:12:55.237Z,21.74
2023-05-22T18:15:21.078Z,21.74
2023-05-22T18:17:46.754Z,21.75
2023-05-22T18:20:12.537Z,21.75
2023-05-22T18:22:38.910Z,21.75
2023-05-22T18:25:06.065Z,21.75
2023-05-22T18:27:33.283Z,21.74
2023-05-22T18:29:58.983Z,21.73
2023-05-22T18:32:24.618Z,21.74
2023-05-22T18:34:51.194Z,21.73
2023-05-22T18:37:18.677Z,21.75
2023-05-22T18:39:45.200Z,21.73
2023-05-22T18:42:11.060Z,21.73
2023-05-22T18:44:36.837Z,21.73
2023-05-22T18:47:02.661Z,21.73
2023-05-22T18:49:28.411Z,21.73
2023-05-22T18:51:54.060Z,21.72
2023-05-22T18:54:19.704Z,21.72
2023-05-22T18:56:45.427Z,21.73
2023-05-22T18:59:11.069Z,21.69
2023-05-22T19:01:36.801Z,21.69
2023-05-22T19:04:02.510Z,21.70
2023-05-22T19:06:28.146Z,21.69
2023-05-22T19:08:54.298Z,21.69
2023-05-22T19:11:19.929Z,21.68
2023-05-22T19:13:45.594Z,21.68
2023-05-22T19:16:12.662Z,21.69
2023-05-22T19:18:38.433Z,21.68
2023-05-22T19:21:04.123Z,21.68
2023-05-22T19:23:29.964Z,21.69
2023-05-22T19:25:56.298Z,21.68
2023-05-22T19:28:22.321Z,21.67
2023-05-22T19:30:47.978Z,21.68
2023-05-22T19:33:13.927Z,21.67
2023-05-22T19:35:40.109Z,21.67
2023-05-22T19:38:05.904Z,21.67
2023-05-22T19:40:31.551Z,21.66
2023-05-22T19:42:57.358Z,21.66
2023-05-22T19:45:25.077Z,21.66
2023-05-22T19:47:51.008Z,21.66
2023-05-22T19:50:16.827Z,21.66
2023-05-22T19:52:42.634Z,21.65
2023-05-22T19:55:09.494Z,21.66
2023-05-22T19:57:35.410Z,21.64
2023-05-22T20:00:01.352Z,21.63
2023-05-22T20:02:27.314Z,21.65
2023-05-22T20:04:53.919Z,21.64
2023-05-22T20:07:19.698Z,21.64
2023-05-22T20:09:45.366Z,21.65
2023-05-22T20:12:11.050Z,21.64
2023-05-22T20:14:37.073Z,21.64
2023-05-22T20:17:02.901Z,21.64
2023-05-22T20:19:29.050Z,21.63
2023-05-22T20:21:57.414Z,21.64
2023-05-22T20:24:24.616Z,21.62
2023-05-22T20:26:50.693Z,21.62
2023-05-22T20:29:16.679Z,21.63
2023-05-22T20:31:42.650Z,21.64
2023-05-22T20:34:08.687Z,21.61
2023-05-22T20:36:35.033Z,21.62
2023-05-22T20:39:01.570Z,21.63
2023-05-22T20:41:27.225Z,21.62
2023-05-22T20:43:53.578Z,21.61
2023-05-22T20:46:21.943Z,21.63
2023-05-22T20:48:48.059Z,21.61
2023-05-22T20:51:17.213Z,21.61
2023-05-22T20:53:42.884Z,21.60
2023-05-22T20:56:08.569Z,21.59
2023-05-22T20:58:34.209Z,21.59
2023-05-22T21:00:59.897Z,21.58
2023-05-22T21:03:26.071Z,21.59
2023-05-22T21:05:51.818Z,21.58
2023-05-22T21:08:17.458Z,21.59
2023-05-22T21:10:43.151Z,21.58
2023-05-22T21:13:08.797Z,21.59
2023-05-22T21:15:34.441Z,21.59
2023-05-22T21:18:00.218Z,21.57
2023-05-22T21:20:26.163Z,21.57
2023-05-22T21:22:51.817Z,21.55
2023-05-22T21:25:17.488Z,21.55
2023-05-22T21:27:43.136Z,21.55
2023-05-22T21:30:11.410Z,21.58
2023-05-22T21:32:37.006Z,21.56
2023-05-22T21:35:02.752Z,21.55
2023-05-22T21:37:28.397Z,21.55
2023-05-22T21:39:54.057Z,21.54
2023-05-22T21:42:20.289Z,21.54
2023-05-22T21:44:45.936Z,21.54
2023-05-22T21:47:11.581Z,21.54
2023-05-22T21:49:39.443Z,21.55
2023-05-22T21:52:05.396Z,21.56
2023-05-22T21:54:31.035Z,21.53
2023-05-22T21:56:56.682Z,21.54
2023-05-22T21:59:22.435Z,21.54
2023-05-22T22:01:48.129Z,21.54
2023-05-22T22:04:13.881Z,21.53
2023-05-22T22:06:39.564Z,21.54
2023-05-22T22:09:05.243Z,21.53
2023-05-22T22:11:30.886Z,21.52
2023-05-22T22:13:56.529Z,21.51
2023-05-22T22:16:22.375Z,21.51
2023-05-22T22:18:49.285Z,21.50
2023-05-22T22:21:15.168Z,21.50
2023-05-22T22:23:40.879Z,21.52
2023-05-22T22:26:06.964Z,21.50
2023-05-22T22:28:33.204Z,21.51
2023-05-22T22:30:58.930Z,21.50
2023-05-22T22:33:24.590Z,21.51
2023-05-22T22:35:51.101Z,21.51
2023-05-22T22:38:16.830Z,21.51
2023-05-22T22:40:42.749Z,21.51
2023-05-22T22:43:08.619Z,21.50
2023-05-22T22:45:34.293Z,21.51
2023-05-22T22:47:59.957Z,21.53
2023-05-22T22:50:26.383Z,21.52
2023-05-22T22:52:52.056Z,21.51
2023-05-22T22:55:17.898Z,21.51
2023-05-22T22:57:46.157Z,21.51
2023-05-22T23:00:12.853Z,21.50
2023-05-22T23:02:39.340Z,21.50
2023-05-22T23:05:05.863Z,21.50
2023-05-22T23:07:31.567Z,21.50
2023-05-22T23:09:57.217Z,21.50
2023-05-22T23:12:22.880Z,21.50
2023-05-22T23:14:49.637Z,21.50
2023-05-22T23:17:15.556Z,21.49
2023-05-22T23:19:41.382Z,21.49
2023-05-22T23:22:07.277Z,21.49
2023-05-22T23:24:32.980Z,21.50
2023-05-22T23:26:58.751Z,21.48
2023-05-22T23:29:24.442Z,21.49
2023-05-22T23:31:50.148Z,21.49
2023-05-22T23:34:16.150Z,21.47
2023-05-22T23:36:42.084Z,21.47
2023-05-22T23:39:07.977Z,21.46
2023-05-22T23:41:34.607Z,21.46
2023-05-22T23:44:00.759Z,21.48
2023-05-22T23:46:26.520Z,21.47
2023-05-22T23:48:52.525Z,21.46
2023-05-22T23:51:18.184Z,21.46
2023-05-22T23:53:44.159Z,21.46
2023-05-22T23:56:10.100Z,21.45
2023-05-22T23:58:37.263Z,21.45
